createdAt,value
2023-05-11T00:00:02.001Z,0
2023-05-11T00:01:08.532Z,0
2023-05-11T00:02:01.099Z,0
2023-05-11T00:03:01.869Z,0
2023-05-11T00:04:01.842Z,0
2023-05-11T00:05:01.075Z,0
2023-05-11T00:06:11.188Z,0
2023-05-11T00:07:01.829Z,0
2023-05-11T00:08:01.076Z,0
2023-05-11T00:09:01.071Z,0
2023-05-11T00:10:01.116Z,0
2023-05-11T00:11:14.273Z,0
2023-05-11T00:12:01.368Z,0
2023-05-11T00:13:01.912Z,0
2023-05-11T00:14:01.112Z,0
2023-05-11T00:15:01.265Z,0
2023-05-11T00:16:01.580Z,0
2023-05-11T00:17:01.031Z,0
2023-05-11T00:18:01.082Z,0
2023-05-11T00:19:01.332Z,0
2023-05-11T00:20:01.070Z,0
2023-05-11T00:21:01.092Z,0
2023-05-11T00:22:01.451Z,0
2023-05-11T00:23:01.123Z,0
2023-05-11T00:24:01.037Z,0
2023-05-11T00:25:01.027Z,0
2023-05-11T00:26:01.122Z,0
2023-05-11T00:27:01.104Z,0
2023-05-11T00:28:01.115Z,0
2023-05-11T00:29:01.378Z,0
2023-05-11T00:30:01.429Z,0
2023-05-11T00:31:02.056Z,0
2023-05-11T00:32:01.124Z,0
2023-05-11T00:33:01.077Z,0
2023-05-11T00:34:00.917Z,0
2023-05-11T00:35:01.293Z,0
2023-05-11T00:36:01.246Z,0
2023-05-11T00:37:01.442Z,0
2023-05-11T00:38:02.221Z,0
2023-05-11T00:39:01.180Z,0
2023-05-11T00:40:01.078Z,0
2023-05-11T00:41:01.075Z,0
2023-05-11T00:42:01.079Z,0
2023-05-11T00:43:01.131Z,0
2023-05-11T00:44:01.102Z,0
2023-05-11T00:45:01.008Z,0
2023-05-11T00:46:01.817Z,0
2023-05-11T00:47:02.284Z,0
2023-05-11T00:48:01.419Z,0
2023-05-11T00:49:02.045Z,0
2023-05-11T00:50:01.031Z,0
2023-05-11T00:51:00.745Z,0
2023-05-11T00:52:00.331Z,0
2023-05-11T00:53:00.013Z,0
2023-05-11T00:53:59.625Z,0
2023-05-11T00:55:01.403Z,0
2023-05-11T00:56:01.863Z,0
2023-05-11T00:57:01.038Z,0
2023-05-11T00:58:01.008Z,0
2023-05-11T00:59:01.020Z,0
2023-05-11T01:00:01.183Z,0
2023-05-11T01:01:00.679Z,0
2023-05-11T01:02:00.350Z,0
2023-05-11T01:03:00.136Z,0
2023-05-11T01:03:59.845Z,0
2023-05-11T01:05:01.605Z,0
2023-05-11T01:06:00.839Z,0
2023-05-11T01:07:00.434Z,0
2023-05-11T01:08:00.174Z,0
2023-05-11T01:08:59.860Z,0
2023-05-11T01:10:01.596Z,0
2023-05-11T01:11:00.534Z,0
2023-05-11T01:12:00.308Z,0
2023-05-11T01:12:59.934Z,0
2023-05-11T01:13:59.966Z,0
2023-05-11T01:14:59.653Z,0
2023-05-11T01:16:03.462Z,0
2023-05-11T01:17:01.238Z,0
2023-05-11T01:18:01.178Z,0
2023-05-11T01:19:01.251Z,0
2023-05-11T01:20:01.253Z,0
2023-05-11T01:21:01.504Z,0
2023-05-11T01:22:01.037Z,0
2023-05-11T01:23:01.050Z,0
2023-05-11T01:24:00.628Z,0
2023-05-11T01:25:00.245Z,0
2023-05-11T01:25:59.830Z,0
2023-05-11T01:27:08.634Z,0
2023-05-11T01:28:01.472Z,0
2023-05-11T01:29:01.471Z,0
2023-05-11T01:30:00.287Z,0
2023-05-11T01:30:59.855Z,0
2023-05-11T01:32:03.262Z,0
2023-05-11T01:33:01.674Z,0
2023-05-11T01:34:01.352Z,0.19999999999999998
2023-05-11T01:35:02.365Z,0
2023-05-11T01:36:02.068Z,0
2023-05-11T01:37:06.080Z,0
2023-05-11T01:38:02.617Z,0.03888888888888889
2023-05-11T01:39:01.023Z,0
2023-05-11T01:40:01.043Z,0
2023-05-11T01:41:00.743Z,0
2023-05-11T01:42:08.136Z,0
2023-05-11T01:43:02.485Z,0
2023-05-11T01:44:01.099Z,0
2023-05-11T01:45:01.081Z,0
2023-05-11T01:46:01.325Z,0.08055555555555555
2023-05-11T01:47:11.933Z,0
2023-05-11T01:48:01.154Z,0
2023-05-11T01:49:01.010Z,0
2023-05-11T01:50:01.111Z,0
2023-05-11T01:51:00.714Z,0
2023-05-11T01:52:13.918Z,0.03888888888888889
2023-05-11T01:53:02.440Z,0.19999999999999998
2023-05-11T01:54:01.717Z,0
2023-05-11T01:55:01.050Z,0
2023-05-11T01:56:01.037Z,0
2023-05-11T01:57:01.170Z,0
2023-05-11T01:58:01.068Z,0.11944444444444444
2023-05-11T01:59:01.103Z,0
2023-05-11T02:00:01.087Z,0
2023-05-11T02:01:01.122Z,0.3972222222222222
2023-05-11T02:02:01.128Z,0
2023-05-11T02:03:01.112Z,0
2023-05-11T02:04:01.216Z,0
2023-05-11T02:05:01.480Z,0.3
2023-05-11T02:06:00.790Z,0.23888888888888887
2023-05-11T02:07:00.427Z,0
2023-05-11T02:08:00.012Z,0
2023-05-11T02:08:59.608Z,0
2023-05-11T02:10:01.727Z,0
2023-05-11T02:11:01.749Z,0
2023-05-11T02:12:02.582Z,0
2023-05-11T02:13:01.416Z,0
2023-05-11T02:14:01.479Z,0
2023-05-11T02:15:02.323Z,0
2023-05-11T02:16:01.405Z,0
2023-05-11T02:17:01.180Z,0
2023-05-11T02:18:01.370Z,0
2023-05-11T02:19:02.483Z,0.11944444444444444
2023-05-11T02:20:02.438Z,0
2023-05-11T02:21:02.445Z,0
2023-05-11T02:22:01.331Z,0
2023-05-11T02:23:01.594Z,0
2023-05-11T02:24:01.033Z,0
2023-05-11T02:25:02.021Z,0
2023-05-11T02:26:01.048Z,0
2023-05-11T02:27:01.033Z,0
2023-05-11T02:28:01.035Z,0
2023-05-11T02:29:01.072Z,0
2023-05-11T02:30:01.074Z,0
2023-05-11T02:31:00.689Z,0
2023-05-11T02:32:00.461Z,0
2023-05-11T02:33:00.070Z,0
2023-05-11T02:33:59.898Z,0
2023-05-11T02:34:59.582Z,0
2023-05-11T02:36:01.225Z,0
2023-05-11T02:37:01.067Z,0
2023-05-11T02:38:01.027Z,0.03888888888888889
2023-05-11T02:39:01.643Z,0
2023-05-11T02:40:01.483Z,0
2023-05-11T02:41:01.665Z,0
2023-05-11T02:42:01.433Z,0
2023-05-11T02:43:01.011Z,0
2023-05-11T02:44:01.055Z,0
2023-05-11T02:45:01.076Z,0
2023-05-11T02:46:00.657Z,0
2023-05-11T02:47:00.484Z,0
2023-05-11T02:48:00.218Z,0
2023-05-11T02:49:00.038Z,0
2023-05-11T02:49:59.769Z,0
2023-05-11T02:51:02.408Z,0
2023-05-11T02:52:01.406Z,0
2023-05-11T02:53:01.028Z,0
2023-05-11T02:54:01.437Z,0
2023-05-11T02:55:01.130Z,0
2023-05-11T02:56:00.734Z,0
2023-05-11T02:57:00.346Z,0
2023-05-11T02:57:59.930Z,0
2023-05-11T02:59:00.139Z,0
2023-05-11T03:00:00.263Z,0
2023-05-11T03:01:00.245Z,0
2023-05-11T03:02:00.368Z,0
2023-05-11T03:03:00.215Z,0
2023-05-11T03:04:00.017Z,0
2023-05-11T03:04:59.696Z,0
2023-05-11T03:06:02.043Z,0
2023-05-11T03:07:01.958Z,0
2023-05-11T03:08:01.100Z,0
2023-05-11T03:09:01.388Z,0
2023-05-11T03:10:01.518Z,0
2023-05-11T03:11:01.156Z,0
2023-05-11T03:12:01.862Z,0
2023-05-11T03:13:01.897Z,0
2023-05-11T03:14:02.081Z,0
2023-05-11T03:15:01.063Z,0
2023-05-11T03:16:00.640Z,0
2023-05-11T03:17:00.424Z,0
2023-05-11T03:18:01.113Z,0
2023-05-11T03:19:01.185Z,0
2023-05-11T03:20:01.076Z,0
2023-05-11T03:21:00.660Z,0
2023-05-11T03:22:00.365Z,0
2023-05-11T03:23:03.690Z,0
2023-05-11T03:24:02.458Z,0
2023-05-11T03:25:01.950Z,0
2023-05-11T03:26:00.696Z,0
2023-05-11T03:27:00.378Z,0
2023-05-11T03:28:05.973Z,0
2023-05-11T03:29:02.979Z,0
2023-05-11T03:30:01.511Z,0
2023-05-11T03:31:00.626Z,0
2023-05-11T03:32:00.332Z,0
2023-05-11T03:33:07.769Z,0
2023-05-11T03:34:00.968Z,0.31666666666666665
2023-05-11T03:35:01.123Z,0.23888888888888887
2023-05-11T03:36:00.565Z,0
2023-05-11T03:37:00.142Z,0
2023-05-11T03:38:09.800Z,0
2023-05-11T03:39:01.134Z,0
2023-05-11T03:40:01.240Z,0
2023-05-11T03:41:00.812Z,0
2023-05-11T03:42:00.431Z,0
2023-05-11T03:43:16.068Z,0
2023-05-11T03:44:01.033Z,0
2023-05-11T03:45:01.050Z,0
2023-05-11T03:46:00.558Z,0
2023-05-11T03:47:00.340Z,0
2023-05-11T03:48:15.198Z,0
2023-05-11T03:49:01.330Z,0
2023-05-11T03:50:02.017Z,0
2023-05-11T03:51:00.984Z,0
2023-05-11T03:52:01.092Z,0
2023-05-11T03:53:01.084Z,0
2023-05-11T03:54:01.114Z,0
2023-05-11T03:55:01.111Z,0
2023-05-11T03:56:00.687Z,0
2023-05-11T03:57:00.288Z,0
2023-05-11T03:58:01.348Z,0
2023-05-11T03:59:01.416Z,0
2023-05-11T04:00:01.779Z,0
2023-05-11T04:01:01.169Z,0.31666666666666665
2023-05-11T04:02:01.056Z,0.4361111111111111
2023-05-11T04:03:01.165Z,0
2023-05-11T04:04:01.320Z,0
2023-05-11T04:05:01.839Z,0
2023-05-11T04:06:00.662Z,0.5555555555555556
2023-05-11T04:07:00.376Z,0.2777777777777778
2023-05-11T04:07:59.979Z,0
2023-05-11T04:08:59.540Z,0
2023-05-11T04:10:01.316Z,0.15833333333333333
2023-05-11T04:11:01.002Z,0.5972222222222222
2023-05-11T04:12:01.168Z,0
2023-05-11T04:13:01.130Z,0
2023-05-11T04:14:01.500Z,0.23055555555555554
2023-05-11T04:15:01.062Z,0.2777777777777778
2023-05-11T04:16:00.760Z,0.15833333333333333
2023-05-11T04:17:00.442Z,0
2023-05-11T04:18:00.487Z,0
2023-05-11T04:19:00.552Z,0.35833333333333334
2023-05-11T04:20:00.367Z,0.11944444444444444
2023-05-11T04:20:59.937Z,0
2023-05-11T04:21:59.524Z,0
2023-05-11T04:23:01.097Z,0.35833333333333334
2023-05-11T04:24:01.099Z,0.2777777777777778
2023-05-11T04:25:01.107Z,0.19999999999999998
2023-05-11T04:26:01.647Z,0
2023-05-11T04:27:01.125Z,0
2023-05-11T04:28:01.108Z,0.19999999999999998
2023-05-11T04:29:01.125Z,0.31666666666666665
2023-05-11T04:30:01.231Z,0.4361111111111111
2023-05-11T04:31:00.934Z,0.35833333333333334
2023-05-11T04:32:01.391Z,0.03888888888888889
2023-05-11T04:33:01.067Z,0
2023-05-11T04:34:01.025Z,0
2023-05-11T04:35:00.614Z,0.21944444444444444
2023-05-11T04:36:00.242Z,0
2023-05-11T04:36:59.804Z,0
2023-05-11T04:38:01.756Z,0.31666666666666665
2023-05-11T04:39:01.749Z,0.31666666666666665
2023-05-11T04:40:01.760Z,0.4583333333333333
2023-05-11T04:41:01.559Z,0.47777777777777775
2023-05-11T04:42:01.123Z,0.47777777777777775
2023-05-11T04:43:01.226Z,0.35833333333333334
2023-05-11T04:44:01.132Z,0.08055555555555555
2023-05-11T04:45:01.137Z,0.4361111111111111
2023-05-11T04:46:00.703Z,0.3972222222222222
2023-05-11T04:47:00.341Z,0.19999999999999998
2023-05-11T04:48:00.167Z,0.875
2023-05-11T04:48:59.960Z,0.26944444444444443
2023-05-11T04:49:59.630Z,0.47777777777777775
2023-05-11T04:51:01.271Z,0.4361111111111111
2023-05-11T04:52:01.886Z,0.3972222222222222
2023-05-11T04:53:01.969Z,0.5972222222222222
2023-05-11T04:54:01.072Z,0.25833333333333336
2023-05-11T04:55:01.093Z,0.3972222222222222
2023-05-11T04:56:00.975Z,0.03888888888888889
2023-05-11T04:57:01.483Z,0.43333333333333335
2023-05-11T04:58:02.141Z,0.19999999999999998
2023-05-11T04:59:02.450Z,0.17222222222222222
2023-05-11T05:00:01.176Z,0.5555555555555556
2023-05-11T05:01:01.039Z,0.5166666666666667
2023-05-11T05:02:01.037Z,0.23888888888888887
2023-05-11T05:03:01.104Z,0.5972222222222222
2023-05-11T05:04:00.847Z,0.5527777777777778
2023-05-11T05:05:01.416Z,0.9722222222222222
2023-05-11T05:06:01.072Z,0.875
2023-05-11T05:07:01.111Z,0.35833333333333334
2023-05-11T05:08:00.759Z,0.5166666666666667
2023-05-11T05:09:04.659Z,0.6027777777777777
2023-05-11T05:10:01.075Z,0.7555555555555555
2023-05-11T05:11:00.700Z,0.7555555555555555
2023-05-11T05:12:00.372Z,0.7555555555555555
2023-05-11T05:12:59.989Z,0.675
2023-05-11T05:14:05.263Z,0.7138888888888888
2023-05-11T05:15:01.400Z,0
2023-05-11T05:16:01.303Z,0.5166666666666667
2023-05-11T05:17:01.645Z,0.7527777777777778
2023-05-11T05:18:01.994Z,0.7944444444444444
2023-05-11T05:19:07.858Z,0.6027777777777777
2023-05-11T05:20:01.095Z,0.6361111111111111
2023-05-11T05:21:00.537Z,0.675
2023-05-11T05:22:00.186Z,0.5166666666666667
2023-05-11T05:22:59.942Z,0.7555555555555555
2023-05-11T05:24:09.042Z,0.3972222222222222
2023-05-11T05:25:01.091Z,0.47777777777777775
2023-05-11T05:26:00.657Z,0.47777777777777775
2023-05-11T05:27:00.264Z,0.5555555555555556
2023-05-11T05:28:00.016Z,0.5555555555555556
2023-05-11T05:29:10.165Z,0.875
2023-05-11T05:30:01.552Z,0.39999999999999997
2023-05-11T05:31:01.339Z,0.675
2023-05-11T05:32:01.118Z,0.675
2023-05-11T05:33:01.162Z,0.35833333333333334
2023-05-11T05:34:16.465Z,0.41944444444444445
2023-05-11T05:35:01.253Z,0.9138888888888889
2023-05-11T05:36:00.820Z,0.9527777777777778
2023-05-11T05:37:00.680Z,0.23888888888888887
2023-05-11T05:38:00.407Z,0.9138888888888889
2023-05-11T05:39:00.104Z,0.03888888888888889
2023-05-11T05:39:59.726Z,0.9416666666666667
2023-05-11T05:41:01.362Z,0.4361111111111111
2023-05-11T05:42:01.092Z,0.7944444444444444
2023-05-11T05:43:01.114Z,0.5972222222222222
2023-05-11T05:44:01.144Z,0.31666666666666665
2023-05-11T05:45:01.485Z,0.5888888888888889
2023-05-11T05:46:01.952Z,0.3361111111111111
2023-05-11T05:47:01.112Z,0.7944444444444444
2023-05-11T05:48:01.142Z,0.47777777777777775
2023-05-11T05:49:01.126Z,0.5555555555555556
2023-05-11T05:50:01.044Z,0.23888888888888887
2023-05-11T05:51:00.721Z,0.7138888888888888
2023-05-11T05:52:00.785Z,0.31666666666666665
2023-05-11T05:53:00.815Z,0.6361111111111111
2023-05-11T05:54:00.517Z,0.7555555555555555
2023-05-11T05:55:00.460Z,0.7555555555555555
2023-05-11T05:56:00.048Z,0.675
2023-05-11T05:56:59.776Z,0.6361111111111111
2023-05-11T05:58:01.759Z,1.1916666666666667
2023-05-11T05:59:01.789Z,0.4361111111111111
2023-05-11T06:00:01.378Z,0.5972222222222222
2023-05-11T06:01:01.734Z,0.19999999999999998
2023-05-11T06:02:01.405Z,0.7666666666666666
2023-05-11T06:03:02.452Z,0.5944444444444444
2023-05-11T06:04:02.529Z,0.675
2023-05-11T06:05:01.326Z,0.9527777777777778
2023-05-11T06:06:00.910Z,0.9138888888888889
2023-05-11T06:07:01.158Z,0.5972222222222222
2023-05-11T06:08:10.061Z,0.875
2023-05-11T06:09:02.416Z,0.6361111111111111
2023-05-11T06:10:07.659Z,0.35833333333333334
2023-05-11T06:11:00.954Z,0.5972222222222222
2023-05-11T06:12:01.280Z,0.675
2023-05-11T06:13:01.401Z,1.0722222222222222
2023-05-11T06:14:01.401Z,0.5166666666666667
2023-05-11T06:15:01.041Z,0.7555555555555555
2023-05-11T06:16:00.737Z,1.0333333333333334
2023-05-11T06:17:00.332Z,0.23888888888888887
2023-05-11T06:17:59.888Z,0.675
2023-05-11T06:18:59.465Z,0.35833333333333334
2023-05-11T06:20:01.039Z,0.5555555555555556
2023-05-11T06:21:00.649Z,0.5972222222222222
2023-05-11T06:22:00.195Z,0.35833333333333334
2023-05-11T06:22:59.786Z,0.3972222222222222
2023-05-11T06:24:01.446Z,0.9833333333333333
2023-05-11T06:25:01.031Z,0.9944444444444445
2023-05-11T06:26:00.647Z,0.7944444444444444
2023-05-11T06:27:00.260Z,0.4361111111111111
2023-05-11T06:28:00.032Z,0.7944444444444444
2023-05-11T06:28:59.632Z,1.2305555555555554
2023-05-11T06:30:01.656Z,0.47777777777777775
2023-05-11T06:31:01.627Z,0.47777777777777775
2023-05-11T06:32:01.504Z,0.3972222222222222
2023-05-11T06:33:01.493Z,0.5055555555555555
2023-05-11T06:34:02.175Z,1.0194444444444444
2023-05-11T06:35:01.249Z,1.3027777777777778
2023-05-11T06:36:01.933Z,0.5972222222222222
2023-05-11T06:37:01.470Z,0.6361111111111111
2023-05-11T06:38:01.691Z,1.4305555555555556
2023-05-11T06:39:01.380Z,0.5555555555555556
2023-05-11T06:40:02.380Z,1.0833333333333333
2023-05-11T06:41:02.096Z,1.5888888888888888
2023-05-11T06:42:05.749Z,0.586111111111111
2023-05-11T06:43:01.059Z,0.31666666666666665
2023-05-11T06:44:01.069Z,0.3972222222222222
2023-05-11T06:45:00.802Z,0.34444444444444444
2023-05-11T06:46:00.517Z,0.3972222222222222
2023-05-11T06:47:00.328Z,0.23888888888888887
2023-05-11T06:47:59.942Z,1.55
2023-05-11T06:49:00.042Z,0.47777777777777775
2023-05-11T06:49:59.917Z,0.7611111111111112
2023-05-11T06:50:59.930Z,1.2722222222222221
2023-05-11T06:51:59.647Z,0.6361111111111111
2023-05-11T06:53:01.343Z,0.675
2023-05-11T06:54:01.035Z,0.15833333333333333
2023-05-11T06:55:00.765Z,0.3194444444444444
2023-05-11T06:56:00.393Z,1.4305555555555556
2023-05-11T06:57:00.010Z,1.0722222222222222
2023-05-11T06:57:59.619Z,0.2777777777777778
2023-05-11T06:59:01.265Z,0.7138888888888888
2023-05-11T07:00:01.727Z,0.2333333333333333
2023-05-11T07:01:01.005Z,0.5555555555555556
2023-05-11T07:02:02.314Z,0.19999999999999998
2023-05-11T07:03:01.810Z,0.47777777777777775
2023-05-11T07:04:02.047Z,1.2722222222222221
2023-05-11T07:05:04.723Z,0.7999999999999999
2023-05-11T07:06:01.128Z,0.5972222222222222
2023-05-11T07:07:00.708Z,0.6361111111111111
2023-05-11T07:08:00.535Z,0.35833333333333334
2023-05-11T07:09:00.114Z,0.8333333333333333
2023-05-11T07:10:06.695Z,0.5555555555555556
2023-05-11T07:11:01.048Z,0.3972222222222222
2023-05-11T07:12:01.068Z,0.5972222222222222
2023-05-11T07:13:01.053Z,0.4361111111111111
2023-05-11T07:14:01.058Z,1.0722222222222222
2023-05-11T07:15:10.368Z,0.36944444444444446
2023-05-11T07:16:01.449Z,0.8861111111111111
2023-05-11T07:17:01.105Z,0.3972222222222222
2023-05-11T07:18:01.155Z,1.3111111111111111
2023-05-11T07:19:01.586Z,0.4361111111111111
2023-05-11T07:20:14.964Z,0.7138888888888888
2023-05-11T07:21:01.365Z,1.55
2023-05-11T07:22:00.691Z,0.5166666666666667
2023-05-11T07:23:00.310Z,0.5166666666666667
2023-05-11T07:23:59.997Z,0.47777777777777775
2023-05-11T07:24:59.689Z,0.6361111111111111
2023-05-11T07:26:01.334Z,0.2777777777777778
2023-05-11T07:27:00.995Z,0.875
2023-05-11T07:28:01.041Z,0.35833333333333334
2023-05-11T07:29:01.045Z,0.4361111111111111
2023-05-11T07:30:01.063Z,0.23888888888888887
2023-05-11T07:31:01.084Z,0.5972222222222222
2023-05-11T07:32:01.070Z,0.675
2023-05-11T07:33:01.140Z,0.3972222222222222
2023-05-11T07:34:01.082Z,1.0333333333333334
2023-05-11T07:35:01.124Z,0.875
2023-05-11T07:36:01.491Z,0.3361111111111111
2023-05-11T07:37:01.095Z,0.675
2023-05-11T07:38:01.131Z,0.31666666666666665
2023-05-11T07:39:01.144Z,1.1916666666666667
2023-05-11T07:40:01.137Z,1.3916666666666666
2023-05-11T07:41:01.319Z,1.3111111111111111
2023-05-11T07:42:02.173Z,0.8805555555555555
2023-05-11T07:43:01.395Z,1.0722222222222222
2023-05-11T07:44:01.836Z,0.15833333333333333
2023-05-11T07:45:01.065Z,0.5972222222222222
2023-05-11T07:46:00.822Z,0.5166666666666667
2023-05-11T07:47:00.725Z,0.6361111111111111
2023-05-11T07:48:00.501Z,0.6361111111111111
2023-05-11T07:49:13.681Z,0.5972222222222222
2023-05-11T07:50:01.143Z,1.55
2023-05-11T07:51:01.305Z,0.875
2023-05-11T07:52:02.145Z,1.2305555555555554
2023-05-11T07:53:01.498Z,1.2888888888888888
2023-05-11T07:54:01.239Z,0.8333333333333333
2023-05-11T07:55:01.112Z,0.19722222222222222
2023-05-11T07:56:01.045Z,1.2305555555555554
2023-05-11T07:57:01.045Z,0.2777777777777778
2023-05-11T07:58:01.040Z,0.5555555555555556
2023-05-11T07:59:01.044Z,0.9944444444444445
2023-05-11T08:00:00.625Z,0.5972222222222222
2023-05-11T08:01:00.463Z,1.5083333333333333
2023-05-11T08:02:00.300Z,1.4305555555555556
2023-05-11T08:03:00.095Z,1.35
2023-05-11T08:03:59.934Z,1.35
2023-05-11T08:04:59.533Z,0.8333333333333333
2023-05-11T08:06:01.198Z,0.6361111111111111
2023-05-11T08:07:00.892Z,0.31666666666666665
2023-05-11T08:08:01.103Z,0.6361111111111111
2023-05-11T08:09:01.126Z,0.5972222222222222
2023-05-11T08:10:01.128Z,0.3972222222222222
2023-05-11T08:11:01.116Z,0.4361111111111111
2023-05-11T08:12:01.417Z,0.14444444444444446
2023-05-11T08:13:01.145Z,0.5555555555555556
2023-05-11T08:14:01.032Z,0.3972222222222222
2023-05-11T08:15:01.300Z,0.4361111111111111
2023-05-11T08:16:01.699Z,0.31666666666666665
2023-05-11T08:17:01.071Z,0.5972222222222222
2023-05-11T08:18:01.098Z,0.47777777777777775
2023-05-11T08:19:01.147Z,0.7944444444444444
2023-05-11T08:20:01.048Z,0.7944444444444444
2023-05-11T08:21:01.089Z,0.5555555555555556
2023-05-11T08:22:01.503Z,0.5972222222222222
2023-05-11T08:23:01.485Z,0.7222222222222222
2023-05-11T08:24:01.067Z,0.9138888888888889
2023-05-11T08:25:01.047Z,0
2023-05-11T08:26:01.132Z,0.6361111111111111
2023-05-11T08:27:01.249Z,0.675
2023-05-11T08:28:01.337Z,0.2777777777777778
2023-05-11T08:29:01.357Z,0.7944444444444444
2023-05-11T08:30:01.654Z,1.0722222222222222
2023-05-11T08:31:01.085Z,0.8611111111111112
2023-05-11T08:32:01.185Z,0.35833333333333334
2023-05-11T08:33:01.114Z,0.4361111111111111
2023-05-11T08:34:01.186Z,0.5555555555555556
2023-05-11T08:35:01.366Z,0.47777777777777775
2023-05-11T08:36:01.115Z,1.3194444444444444
2023-05-11T08:37:01.810Z,0.5055555555555555
2023-05-11T08:38:02.135Z,0.7944444444444444
2023-05-11T08:39:01.531Z,0.6361111111111111
2023-05-11T08:40:01.317Z,0.35833333333333334
2023-05-11T08:41:01.137Z,0.6888888888888889
2023-05-11T08:42:01.129Z,0.7138888888888888
2023-05-11T08:43:01.115Z,0.8333333333333333
2023-05-11T08:44:01.040Z,0.7138888888888888
2023-05-11T08:45:01.140Z,0.2777777777777778
2023-05-11T08:46:01.164Z,1.1694444444444445
2023-05-11T08:47:18.878Z,0.7555555555555555
2023-05-11T08:48:01.431Z,0.5555555555555556
2023-05-11T08:49:02.366Z,0.9138888888888889
2023-05-11T08:50:02.466Z,0.38888888888888884
2023-05-11T08:51:03.614Z,0.6638888888888889
2023-05-11T08:52:01.767Z,1.5083333333333333
2023-05-11T08:53:01.751Z,0.5555555555555556
2023-05-11T08:54:01.692Z,0.7944444444444444
2023-05-11T08:55:01.781Z,0.11944444444444444
2023-05-11T08:56:06.234Z,0.34444444444444444
2023-05-11T08:57:01.775Z,1.152777777777778
2023-05-11T08:58:01.150Z,0.5972222222222222
2023-05-11T08:59:01.133Z,1.2305555555555554
2023-05-11T09:00:01.157Z,0.2777777777777778
2023-05-11T09:01:09.415Z,0.8250000000000001
2023-05-11T09:02:01.058Z,1.152777777777778
2023-05-11T09:03:01.179Z,1.2722222222222221
2023-05-11T09:04:01.228Z,0.6361111111111111
2023-05-11T09:05:01.093Z,0.675
2023-05-11T09:06:13.390Z,0.7611111111111112
2023-05-11T09:07:02.101Z,0.7138888888888888
2023-05-11T09:08:02.088Z,0.675
2023-05-11T09:09:01.125Z,1.0333333333333334
2023-05-11T09:10:01.212Z,0.31666666666666665
2023-05-11T09:11:15.243Z,1.777777777777778
2023-05-11T09:12:02.550Z,0.9944444444444445
2023-05-11T09:13:01.171Z,1.4694444444444443
2023-05-11T09:14:01.188Z,0.5166666666666667
2023-05-11T09:15:02.526Z,0.46944444444444444
2023-05-11T09:16:01.195Z,0.6361111111111111
2023-05-11T09:17:01.103Z,0.5972222222222222
2023-05-11T09:18:01.050Z,1.35
2023-05-11T09:19:01.367Z,0.47777777777777775
2023-05-11T09:20:01.110Z,1.8666666666666665
2023-05-11T09:21:01.052Z,1.1916666666666667
2023-05-11T09:22:01.070Z,0.675
2023-05-11T09:23:01.017Z,0.19999999999999998
2023-05-11T09:24:01.437Z,0.4361111111111111
2023-05-11T09:25:01.407Z,1.1111111111111112
2023-05-11T09:26:00.987Z,0.4361111111111111
2023-05-11T09:27:01.098Z,0.6361111111111111
2023-05-11T09:28:01.317Z,0.5972222222222222
2023-05-11T09:29:03.424Z,0.6361111111111111
2023-05-11T09:30:01.441Z,0.31666666666666665
2023-05-11T09:31:01.087Z,0.3972222222222222
2023-05-11T09:32:01.151Z,0.8333333333333333
2023-05-11T09:33:01.510Z,0.7972222222222223
2023-05-11T09:34:01.166Z,0.8333333333333333
2023-05-11T09:35:01.100Z,0.23888888888888887
2023-05-11T09:36:01.058Z,0.35833333333333334
2023-05-11T09:37:01.063Z,1.0333333333333334
2023-05-11T09:38:01.096Z,0.7555555555555555
2023-05-11T09:39:01.080Z,0.6361111111111111
2023-05-11T09:41:01.112Z,0.23888888888888887
2023-05-11T09:42:01.514Z,0.3972222222222222
2023-05-11T09:43:01.309Z,0.9138888888888889
2023-05-11T09:44:01.358Z,1.35
2023-05-11T09:45:02.029Z,0.47777777777777775
2023-05-11T09:46:01.277Z,0.4361111111111111
2023-05-11T09:47:01.048Z,0.31666666666666665
2023-05-11T09:48:01.508Z,1.2277777777777776
2023-05-11T09:49:00.778Z,0.2777777777777778
2023-05-11T09:50:00.351Z,0.4361111111111111
2023-05-11T09:50:59.925Z,0.4361111111111111
2023-05-11T09:51:59.527Z,0.9944444444444445
2023-05-11T09:53:02.896Z,0.2777777777777778
2023-05-11T09:54:04.004Z,0.5972222222222222
2023-05-11T09:55:01.087Z,0.3972222222222222
2023-05-11T09:56:01.117Z,0.23888888888888887
2023-05-11T09:57:01.105Z,0.35833333333333334
2023-05-11T09:58:01.127Z,0.19999999999999998
2023-05-11T09:59:01.125Z,0.4361111111111111
2023-05-11T10:00:01.143Z,1.8666666666666665
2023-05-11T10:01:01.067Z,1.0333333333333334
2023-05-11T10:02:01.202Z,0.9944444444444445
2023-05-11T10:03:01.217Z,0.7555555555555555
2023-05-11T10:04:17.942Z,0.7138888888888888
2023-05-11T10:05:01.576Z,0.7138888888888888
2023-05-11T10:06:01.093Z,0.3972222222222222
2023-05-11T10:07:01.127Z,0.675
2023-05-11T10:08:01.409Z,0.5027777777777778
2023-05-11T10:09:01.042Z,0.5972222222222222
2023-05-11T10:10:01.073Z,0.47777777777777775
2023-05-11T10:11:01.035Z,1.4694444444444443
2023-05-11T10:12:01.108Z,1.0333333333333334
2023-05-11T10:13:01.106Z,0.6361111111111111
2023-05-11T10:14:00.814Z,0.5555555555555556
2023-05-11T10:15:00.545Z,0.23888888888888887
2023-05-11T10:16:00.247Z,0.5555555555555556
2023-05-11T10:16:59.889Z,0.85
2023-05-11T10:17:59.624Z,1.2722222222222221
2023-05-11T10:19:01.249Z,0.7944444444444444
2023-05-11T10:20:02.594Z,0.9944444444444445
2023-05-11T10:21:01.965Z,0.47777777777777775
2023-05-11T10:22:01.383Z,0.29444444444444445
2023-05-11T10:23:01.432Z,0.4305555555555556
2023-05-11T10:24:02.177Z,0.5555555555555556
2023-05-11T10:25:02.812Z,0.31666666666666665
2023-05-11T10:26:01.350Z,0.3972222222222222
2023-05-11T10:27:00.580Z,0.3194444444444444
2023-05-11T10:28:00.154Z,0.2777777777777778
2023-05-11T10:28:59.774Z,0.23888888888888887
2023-05-11T10:30:01.738Z,0.5166666666666667
2023-05-11T10:31:01.406Z,0.5166666666666667
2023-05-11T10:32:01.100Z,0.6638888888888889
2023-05-11T10:33:01.173Z,0.6361111111111111
2023-05-11T10:34:01.416Z,1.35
2023-05-11T10:35:01.158Z,0.9527777777777778
2023-05-11T10:36:01.059Z,0.31666666666666665
2023-05-11T10:37:03.605Z,0.4611111111111111
2023-05-11T10:38:01.355Z,0.23888888888888887
2023-05-11T10:39:01.323Z,0.47777777777777775
2023-05-11T10:40:01.926Z,1.152777777777778
2023-05-11T10:41:02.080Z,0.5972222222222222
2023-05-11T10:42:05.862Z,0.08611111111111111
2023-05-11T10:43:01.488Z,0.2888888888888889
2023-05-11T10:44:01.099Z,0.23888888888888887
2023-05-11T10:45:01.097Z,0.31666666666666665
2023-05-11T10:46:01.159Z,0.5555555555555556
2023-05-11T10:47:07.810Z,1.0722222222222222
2023-05-11T10:48:00.824Z,0.8333333333333333